Time;durP1;ratioP1;P1;durP2;ratioP2;P2;SDS_P1;SDS_P2;PMS_P1;PMS_P2;Temp;Humidity;BMP_temperature;BMP_pressure;BME280_temperature;BME280_humidity;BME280_pressure;Samples;Min_cycle;Max_cycle;Signal;HPM_P1;HPM_P2
2024/04/21 00:00:26;;;;;;;14.73;1.88;;;;;;;4.85;100.00;101860.03;5429734;26;20601;-72
2024/04/21 00:02:52;;;;;;;13.45;2.28;;;;;;;4.88;100.00;101850.41;5425868;26;20022;-72
2024/04/21 00:05:18;;;;;;;13.20;1.83;;;;;;;4.93;100.00;101854.44;5432799;26;20010;-72
2024/04/21 00:07:44;;;;;;;22.63;2.92;;;;;;;4.96;100.00;101852.50;5401569;26;20044;-72
2024/04/21 00:10:10;;;;;;;10.00;1.52;;;;;;;4.93;100.00;101852.69;5439339;26;20315;-72
2024/04/21 00:12:36;;;;;;;14.48;2.00;;;;;;;4.92;100.00;101857.94;5440023;26;20013;-72
2024/04/21 00:15:03;;;;;;;10.50;2.40;;;;;;;4.81;100.00;101849.13;5443359;26;20007;-72
2024/04/21 00:17:29;;;;;;;11.43;1.60;;;;;;;4.77;100.00;101852.81;5404756;26;20088;-71
2024/04/21 00:19:55;;;;;;;18.30;2.33;;;;;;;4.83;100.00;101844.72;5440874;26;20007;-73
2024/04/21 00:22:21;;;;;;;21.10;1.58;;;;;;;4.73;100.00;101843.63;5412777;26;20007;-72
2024/04/21 00:24:47;;;;;;;12.60;2.50;;;;;;;4.68;100.00;101843.88;5400137;26;20017;-72
2024/04/21 00:27:13;;;;;;;10.48;1.80;;;;;;;4.64;100.00;101846.75;5409549;26;20758;-73
2024/04/21 00:29:39;;;;;;;12.48;1.48;;;;;;;4.62;100.00;101844.25;5438641;26;20025;-72
2024/04/21 00:32:05;;;;;;;19.58;3.08;;;;;;;4.58;100.00;101847.13;5405497;26;20007;-72
2024/04/21 00:34:31;;;;;;;23.73;9.25;;;;;;;4.60;100.00;101840.97;5441635;26;20071;-71
2024/04/21 00:36:57;;;;;;;15.13;3.65;;;;;;;4.53;100.00;101834.53;5436830;26;20010;-72
2024/04/21 00:39:23;;;;;;;8.13;2.67;;;;;;;4.61;100.00;101826.38;5430733;26;20003;-72
2024/04/21 00:41:49;;;;;;;14.75;2.05;;;;;;;4.65;100.00;101827.81;5433808;26;19999;-72
2024/04/21 00:44:15;;;;;;;8.20;1.83;;;;;;;4.60;100.00;101832.44;5409277;26;20465;-72
2024/04/21 00:46:41;;;;;;;10.05;1.92;;;;;;;4.58;100.00;101829.97;5443181;26;20326;-72
2024/04/21 00:49:07;;;;;;;14.20;1.70;;;;;;;4.59;100.00;101834.16;5428504;26;20003;-72
2024/04/21 00:51:34;;;;;;;19.65;2.05;;;;;;;4.51;100.00;101831.22;5440520;26;20003;-72
2024/04/21 00:54:01;;;;;;;13.70;1.70;;;;;;;4.61;100.00;101821.22;5432993;26;20013;-71
2024/04/21 00:56:28;;;;;;;18.40;2.33;;;;;;;4.70;100.00;101822.44;5404651;26;20534;-72
2024/04/21 00:58:54;;;;;;;12.63;1.48;;;;;;;4.64;100.00;101818.50;5438841;26;20075;-72
2024/04/21 01:01:23;;;;;;;14.73;1.70;;;;;;;4.58;100.00;101816.28;5405360;26;20003;-71
2024/04/21 01:03:51;;;;;;;9.88;1.50;;;;;;;4.50;100.00;101816.72;5439180;26;20468;-70
2024/04/21 01:06:17;;;;;;;12.38;1.95;;;;;;;4.47;100.00;101802.34;5431802;26;20006;-71
2024/04/21 01:08:43;;;;;;;14.48;1.50;;;;;;;4.54;100.00;101809.66;5431768;26;20006;-72
2024/04/21 01:11:19;;;;;;;16.38;2.25;;;;;;;4.51;100.00;101804.72;5427489;26;20029;-71
2024/04/21 01:13:45;;;;;;;18.92;3.35;;;;;;;4.38;100.00;101809.75;5409030;26;20476;-72
2024/04/21 01:16:13;;;;;;;16.88;2.17;;;;;;;4.48;100.00;101806.56;5441659;26;20002;-71
2024/04/21 01:18:39;;;;;;;12.30;1.73;;;;;;;4.56;100.00;101808.69;5440072;26;20460;-71
2024/04/21 01:21:05;;;;;;;11.23;1.58;;;;;;;4.57;100.00;101804.34;5436995;26;19999;-71
2024/04/21 01:23:31;;;;;;;14.57;2.65;;;;;;;4.54;100.00;101801.97;5439066;26;20079;-71
2024/04/21 01:25:57;;;;;;;18.77;1.92;;;;;;;4.50;100.00;101803.88;5445568;26;19998;-72
2024/04/21 01:28:23;;;;;;;12.73;1.90;;;;;;;4.46;100.00;101802.41;5440361;26;19999;-71
2024/04/21 01:30:49;;;;;;;8.55;2.28;;;;;;;4.45;100.00;101793.91;5434609;26;20014;-72
2024/04/21 01:33:15;;;;;;;11.43;1.30;;;;;;;4.46;100.00;101803.28;5437513;26;20015;-74
2024/04/21 01:35:42;;;;;;;13.57;1.50;;;;;;;4.40;100.00;101807.94;5435414;26;20014;-71
2024/04/21 01:38:08;;;;;;;14.23;2.17;;;;;;;4.48;100.00;101806.56;5398598;26;20139;-71
2024/04/21 01:40:34;;;;;;;18.45;2.05;;;;;;;4.42;100.00;101808.66;5437252;26;20039;-71
2024/04/21 01:43:00;;;;;;;8.23;1.27;;;;;;;4.34;100.00;101809.13;5436184;26;20014;-71
2024/04/21 01:45:26;;;;;;;11.10;1.83;;;;;;;4.29;100.00;101806.84;5408496;26;20010;-71
2024/04/21 01:47:52;;;;;;;15.38;2.05;;;;;;;4.17;100.00;101802.41;5406250;26;20365;-72
2024/04/21 01:50:18;;;;;;;12.40;2.15;;;;;;;4.04;100.00;101814.31;5400890;26;20127;-71
2024/04/21 01:52:44;;;;;;;9.52;2.22;;;;;;;4.06;100.00;101808.16;5442541;26;19999;-71
2024/04/21 01:55:10;;;;;;;4.35;1.30;;;;;;;3.99;100.00;101803.47;5440318;26;20466;-72
2024/04/21 01:57:36;;;;;;;14.32;1.58;;;;;;;3.89;100.00;101800.59;5434731;26;20394;-74
2024/04/21 02:00:04;;;;;;;6.00;1.05;;;;;;;3.72;100.00;101796.44;5410517;26;20514;-72
2024/04/21 02:02:38;;;;;;;8.90;1.10;;;;;;;3.60;100.00;101797.97;5435046;26;20449;-73
2024/04/21 02:05:04;;;;;;;6.32;0.82;;;;;;;3.58;100.00;101794.66;5439714;26;20015;-73
2024/04/21 02:07:30;;;;;;;5.00;0.80;;;;;;;3.57;100.00;101781.91;5405467;26;20021;-72
2024/04/21 02:09:56;;;;;;;10.15;1.10;;;;;;;3.50;100.00;101778.88;5439603;26;20112;-72
2024/04/21 02:12:22;;;;;;;6.28;0.90;;;;;;;3.49;100.00;101764.41;5402204;26;20007;-72
2024/04/21 02:14:48;;;;;;;10.30;2.13;;;;;;;3.50;100.00;101778.88;5433335;26;20003;-72
2024/04/21 02:17:14;;;;;;;6.35;2.05;;;;;;;3.47;100.00;101774.75;5431920;26;20033;-72
2024/04/21 02:19:40;;;;;;;6.38;1.75;;;;;;;3.47;100.00;101776.50;5407011;26;19999;-71
2024/04/21 02:22:06;;;;;;;6.30;1.27;;;;;;;3.47;100.00;101771.34;5433070;26;20446;-72
2024/04/21 02:24:44;;;;;;;11.13;1.60;;;;;;;3.46;100.00;101773.06;5433905;26;20017;-71
2024/04/21 02:27:10;;;;;;;13.75;2.03;;;;;;;3.36;100.00;101778.81;5433805;26;20010;-72
2024/04/21 02:29:36;;;;;;;7.25;1.33;;;;;;;3.31;100.00;101773.94;5404421;26;20445;-72
2024/04/21 02:32:02;;;;;;;6.82;1.27;;;;;;;3.26;100.00;101771.63;5412630;26;20051;-72
2024/04/21 02:34:28;;;;;;;4.55;0.90;;;;;;;3.26;100.00;101778.50;5434675;26;20003;-72
2024/04/21 02:36:54;;;;;;;3.22;0.95;;;;;;;3.20;100.00;101779.69;5380823;26;20369;-72
2024/04/21 02:39:20;;;;;;;6.95;1.25;;;;;;;3.18;100.00;101771.22;5409516;26;20014;-72
2024/04/21 02:41:47;;;;;;;4.45;1.77;;;;;;;3.19;100.00;101775.44;5411447;26;20353;-71
2024/04/21 02:44:13;;;;;;;5.72;1.25;;;;;;;3.20;100.00;101769.41;5441160;26;20456;-71
2024/04/21 02:46:39;;;;;;;5.15;1.25;;;;;;;3.17;100.00;101768.75;5442475;26;19999;-72
2024/04/21 02:49:05;;;;;;;3.80;1.05;;;;;;;3.14;100.00;101761.22;5442810;26;20022;-72
2024/04/21 02:51:31;;;;;;;2.03;0.80;;;;;;;3.12;100.00;101764.69;5436314;26;20339;-72
2024/04/21 02:53:57;;;;;;;7.50;0.98;;;;;;;3.08;100.00;101759.81;5441063;26;20386;-72
2024/04/21 02:56:23;;;;;;;4.05;0.93;;;;;;;3.07;100.00;101765.84;5403874;26;20025;-71
2024/04/21 02:58:49;;;;;;;6.88;1.00;;;;;;;3.05;100.00;101765.09;5441431;26;20010;-72
2024/04/21 03:01:15;;;;;;;9.10;1.30;;;;;;;3.05;100.00;101759.97;5432112;26;20361;-72
2024/04/21 03:03:41;;;;;;;8.07;0.95;;;;;;;3.05;100.00;101755.72;5444819;26;19998;-71
2024/04/21 03:06:07;;;;;;;3.40;0.93;;;;;;;3.07;100.00;101751.31;5441967;26;20057;-71
2024/04/21 03:08:33;;;;;;;4.43;1.25;;;;;;;3.07;100.00;101753.88;5412047;26;19999;-71
2024/04/21 03:10:59;;;;;;;12.00;1.52;;;;;;;3.00;100.00;101751.75;5403235;26;20019;-72
2024/04/21 03:13:26;;;;;;;10.10;2.05;;;;;;;3.00;100.00;101750.00;5408773;26;20357;-71
2024/04/21 03:15:52;;;;;;;4.10;1.48;;;;;;;2.99;100.00;101743.22;5399319;26;20006;-72
2024/04/21 03:18:18;;;;;;;10.43;1.88;;;;;;;3.00;100.00;101744.88;5408561;26;20354;-72
2024/04/21 03:20:55;;;;;;;7.43;0.95;;;;;;;3.01;100.00;101738.81;5433473;26;20038;-71
2024/04/21 03:23:24;;;;;;;6.10;0.95;;;;;;;2.96;100.00;101743.38;5435619;26;19999;-71
2024/04/21 03:25:50;;;;;;;4.60;1.25;;;;;;;2.93;100.00;101739.25;5407611;26;20031;-72
2024/04/21 03:28:16;;;;;;;6.80;1.98;;;;;;;2.93;100.00;101740.97;5438639;26;20330;-72
2024/04/21 03:30:42;;;;;;;6.32;1.05;;;;;;;2.91;100.00;101738.50;5432799;26;20001;-71
2024/04/21 03:33:08;;;;;;;11.80;1.42;;;;;;;2.94;100.00;101745.22;5437778;26;20072;-72
2024/04/21 03:35:34;;;;;;;9.80;1.30;;;;;;;2.93;100.00;101741.81;5405689;26;20018;-72
2024/04/21 03:38:00;;;;;;;18.95;1.23;;;;;;;2.92;100.00;101731.66;5377515;26;20086;-71
2024/04/21 03:40:26;;;;;;;13.63;1.67;;;;;;;2.90;100.00;101733.44;5404663;26;20015;-71
2024/04/21 03:42:52;;;;;;;6.40;1.20;;;;;;;2.88;100.00;101732.72;5438013;26;20458;-72
2024/04/21 03:45:18;;;;;;;6.60;0.90;;;;;;;2.85;100.00;101736.28;5437704;26;20003;-71
2024/04/21 03:47:44;;;;;;;9.70;1.17;;;;;;;2.86;100.00;101737.09;5406901;26;20003;-71
2024/04/21 03:50:10;;;;;;;11.32;1.70;;;;;;;2.85;100.00;101727.78;5432921;26;20003;-71
2024/04/21 03:52:36;;;;;;;6.20;1.77;;;;;;;2.83;100.00;101734.72;5440310;26;19995;-71
2024/04/21 03:55:02;;;;;;;5.45;1.48;;;;;;;2.82;100.00;101726.19;5435272;26;20017;-71
2024/04/21 03:57:30;;;;;;;11.18;2.22;;;;;;;2.80;100.00;101735.69;5408135;26;20014;-72
2024/04/21 03:59:57;;;;;;;4.75;1.25;;;;;;;2.78;100.00;101732.38;5412964;26;19994;-71
2024/04/21 04:02:23;;;;;;;9.25;2.22;;;;;;;2.79;100.00;101725.53;5439218;26;20087;-71
2024/04/21 04:04:48;;;;;;;7.80;1.80;;;;;;;2.79;100.00;101731.50;5399946;26;19998;-72
2024/04/21 04:07:14;;;;;;;8.55;1.25;;;;;;;2.78;100.00;101727.25;5439094;26;21161;-70
2024/04/21 04:09:40;;;;;;;6.63;1.30;;;;;;;2.78;100.00;101729.81;5431637;26;20003;-71
2024/04/21 04:12:06;;;;;;;6.35;1.10;;;;;;;2.79;100.00;101723.81;5435498;26;20022;-71
2024/04/21 04:14:32;;;;;;;5.80;1.30;;;;;;;2.79;100.00;101722.97;5440369;26;20006;-71
2024/04/21 04:16:58;;;;;;;6.80;1.17;;;;;;;2.82;100.00;101720.25;5441706;26;20009;-72
2024/04/21 04:19:24;;;;;;;3.72;1.00;;;;;;;2.83;100.00;101720.16;5435766;26;20428;-71
2024/04/21 04:21:50;;;;;;;9.13;1.92;;;;;;;2.85;100.00;101723.47;5411714;26;19999;-70
2024/04/21 04:24:16;;;;;;;7.13;1.20;;;;;;;2.86;100.00;101722.56;5441526;26;20030;-71
2024/04/21 04:26:42;;;;;;;5.28;1.50;;;;;;;2.87;100.00;101726.78;5436286;26;20345;-72
2024/04/21 04:29:08;;;;;;;7.82;1.95;;;;;;;2.89;100.00;101724.13;5402598;26;20007;-72
2024/04/21 04:31:34;;;;;;;8.50;1.38;;;;;;;2.90;100.00;101721.50;5421500;26;20003;-72
2024/04/21 04:34:00;;;;;;;6.68;1.50;;;;;;;2.91;100.00;101715.44;5406961;26;20006;-73
2024/04/21 04:36:26;;;;;;;9.93;1.42;;;;;;;2.92;100.00;101716.28;5413432;26;20496;-72
2024/04/21 04:38:52;;;;;;;9.57;1.52;;;;;;;2.90;100.00;101715.53;5439870;26;20734;-72
2024/04/21 04:41:18;;;;;;;11.27;1.60;;;;;;;2.88;100.00;101710.50;5435306;26;20007;-71
2024/04/21 04:43:44;;;;;;;14.15;2.63;;;;;;;2.93;100.00;101708.50;5438511;26;19999;-72
2024/04/21 04:46:10;;;;;;;7.28;1.50;;;;;;;2.89;100.00;101712.13;5437220;26;20083;-72
2024/04/21 04:48:37;;;;;;;8.70;2.45;;;;;;;2.92;100.00;101700.91;5409146;26;20007;-72
2024/04/21 04:51:03;;;;;;;9.05;1.80;;;;;;;2.95;100.00;101707.59;5412118;26;20337;-72
2024/04/21 04:53:29;;;;;;;14.15;1.77;;;;;;;2.97;100.00;101706.59;5407366;26;20583;-72
2024/04/21 04:55:55;;;;;;;11.50;2.30;;;;;;;2.97;100.00;101713.47;5436585;26;20007;-72
2024/04/21 04:58:21;;;;;;;13.18;2.10;;;;;;;3.03;100.00;101702.88;5441022;26;20010;-72
2024/04/21 05:00:47;;;;;;;11.45;1.67;;;;;;;3.16;100.00;101706.41;5434514;26;20846;-72
2024/04/21 05:03:13;;;;;;;16.50;2.45;;;;;;;3.16;100.00;101703.84;5410611;26;19999;-72
2024/04/21 05:05:39;;;;;;;11.15;2.50;;;;;;;3.15;100.00;101704.75;5437638;26;20061;-72
2024/04/21 05:08:06;;;;;;;12.10;2.35;;;;;;;3.23;100.00;101704.34;5404045;26;20003;-73
2024/04/21 05:10:32;;;;;;;18.27;2.20;;;;;;;3.28;100.00;101707.47;5382315;26;20444;-72
2024/04/21 05:12:58;;;;;;;12.52;2.17;;;;;;;3.23;100.00;101696.63;5433574;26;20013;-72
2024/04/21 05:15:25;;;;;;;20.92;2.30;;;;;;;3.18;100.00;101706.31;5434679;26;20763;-72
2024/04/21 05:17:51;;;;;;;16.90;3.03;;;;;;;3.34;100.00;101714.81;5407277;26;20003;-72
2024/04/21 05:20:17;;;;;;;12.20;2.92;;;;;;;3.41;100.00;101710.13;5436963;26;20023;-72
2024/04/21 05:22:43;;;;;;;13.40;2.13;;;;;;;3.35;100.00;101718.19;5438551;26;20009;-72
2024/04/21 05:25:09;;;;;;;13.60;2.15;;;;;;;3.41;100.00;101717.84;5406673;26;19998;-72
2024/04/21 05:27:35;;;;;;;13.90;2.30;;;;;;;3.46;100.00;101723.53;5442573;26;19999;-71
2024/04/21 05:30:01;;;;;;;20.90;1.90;;;;;;;3.55;100.00;101728.13;5404009;26;20002;-71
2024/04/21 05:32:27;;;;;;;19.90;2.03;;;;;;;3.70;100.00;101726.44;5386789;26;20007;-72
2024/04/21 05:34:53;;;;;;;14.55;2.10;;;;;;;3.85;100.00;101722.97;5435111;26;20022;-73
2024/04/21 05:37:19;;;;;;;10.77;2.22;;;;;;;3.93;100.00;101727.66;5400293;26;20353;-72
2024/04/21 05:39:45;;;;;;;17.08;2.42;;;;;;;3.99;100.00;101717.03;5403799;26;20021;-72
2024/04/21 05:42:11;;;;;;;20.95;2.00;;;;;;;4.12;100.00;101714.56;5404753;26;19999;-72
2024/04/21 05:44:37;;;;;;;19.67;2.40;;;;;;;4.20;100.00;101711.53;5435412;26;20466;-72
2024/04/21 05:47:03;;;;;;;11.60;1.95;;;;;;;4.34;100.00;101719.25;5403817;26;20357;-72
2024/04/21 05:49:30;;;;;;;11.98;1.77;;;;;;;4.51;100.00;101732.81;5406805;26;20025;-72
2024/04/21 05:51:56;;;;;;;10.32;1.70;;;;;;;4.47;100.00;101743.25;5407133;26;20010;-71
2024/04/21 05:54:22;;;;;;;13.90;2.95;;;;;;;4.59;100.00;101746.81;5437535;26;20015;-71
2024/04/21 05:56:48;;;;;;;12.65;2.20;;;;;;;4.53;100.00;101746.38;5438404;26;20018;-71
2024/04/21 05:59:14;;;;;;;11.35;1.98;;;;;;;4.75;100.00;101746.72;5438898;26;20002;-72
2024/04/21 06:01:40;;;;;;;17.35;2.20;;;;;;;5.18;100.00;101746.59;5409022;26;19999;-72
2024/04/21 06:04:05;;;;;;;10.35;1.40;;;;;;;5.46;100.00;101757.66;5430300;26;20393;-72
2024/04/21 06:06:31;;;;;;;19.92;2.72;;;;;;;5.73;100.00;101761.97;5433704;26;20007;-72
2024/04/21 06:08:58;;;;;;;14.57;2.55;;;;;;;5.70;97.70;101764.72;5411199;26;19998;-72
2024/04/21 06:11:23;;;;;;;8.90;1.40;;;;;;;5.84;96.83;101760.31;5410639;26;20003;-72
2024/04/21 06:13:49;;;;;;;13.30;1.77;;;;;;;5.73;96.97;101760.19;5436238;26;20026;-71
2024/04/21 06:16:15;;;;;;;15.35;2.13;;;;;;;5.53;96.80;101760.69;5378800;26;19999;-71
2024/04/21 06:18:41;;;;;;;10.52;1.98;;;;;;;5.45;98.26;101754.28;5442413;26;20018;-72
2024/04/21 06:21:08;;;;;;;13.70;2.10;;;;;;;5.36;99.07;101757.44;5439831;26;19999;-74
2024/04/21 06:23:34;;;;;;;9.43;1.67;;;;;;;5.26;98.24;101762.34;5444205;26;20014;-72
2024/04/21 06:26:00;;;;;;;9.43;1.85;;;;;;;5.17;99.46;101769.81;5441374;26;19995;-72
2024/04/21 06:28:26;;;;;;;13.38;2.58;;;;;;;5.15;100.00;101772.50;5406530;26;20008;-72
2024/04/21 06:30:52;;;;;;;9.57;1.67;;;;;;;5.11;100.00;101776.19;5412000;26;19999;-72
2024/04/21 06:33:18;;;;;;;13.30;2.15;;;;;;;4.92;100.00;101783.41;5442701;26;20371;-71
2024/04/21 06:35:47;;;;;;;12.40;2.08;;;;;;;4.69;100.00;101795.91;5439052;26;20060;-71
2024/04/21 06:38:13;;;;;;;9.80;1.67;;;;;;;4.68;100.00;101786.53;5441033;26;20015;-72
2024/04/21 06:40:39;;;;;;;19.42;3.30;;;;;;;4.72;100.00;101794.91;5436554;26;20022;-72
2024/04/21 06:43:04;;;;;;;10.75;2.22;;;;;;;4.92;99.88;101798.81;5412088;26;20010;-71
2024/04/21 06:45:30;;;;;;;12.65;2.63;;;;;;;4.91;97.78;101800.53;5439586;26;20018;-71
2024/04/21 06:47:56;;;;;;;11.50;1.77;;;;;;;4.81;99.13;101815.72;5438604;26;20018;-71
2024/04/21 06:50:22;;;;;;;12.23;1.70;;;;;;;4.79;98.82;101812.41;5439980;26;20666;-72
2024/04/21 06:52:48;;;;;;;10.82;1.75;;;;;;;4.95;99.71;101820.00;5433288;26;20062;-74
2024/04/21 06:55:15;;;;;;;13.23;2.10;;;;;;;5.37;99.16;101814.84;5431815;26;19995;-72
2024/04/21 06:57:43;;;;;;;9.30;1.20;;;;;;;5.37;97.65;101819.97;5408282;26;20014;-71
2024/04/21 07:00:10;;;;;;;16.48;3.78;;;;;;;5.31;98.08;101826.34;5440086;26;20007;-72
2024/04/21 07:02:35;;;;;;;7.43;1.17;;;;;;;5.11;97.10;101842.22;5409135;26;20067;-72
2024/04/21 07:05:02;;;;;;;12.93;2.20;;;;;;;4.98;98.51;101847.28;5442312;26;20003;-72
2024/04/21 07:07:27;;;;;;;13.68;2.13;;;;;;;4.92;99.35;101852.81;5441067;26;20453;-71
2024/04/21 07:09:54;;;;;;;10.30;1.42;;;;;;;4.78;100.00;101858.75;5408799;26;20014;-72
2024/04/21 07:12:20;;;;;;;12.60;1.50;;;;;;;4.86;100.00;101856.56;5404620;26;20007;-72
2024/04/21 07:14:46;;;;;;;6.18;1.20;;;;;;;4.92;100.00;101863.09;5444167;26;20003;-72
2024/04/21 07:17:12;;;;;;;9.40;1.50;;;;;;;4.73;100.00;101873.63;5401232;26;20026;-71
2024/04/21 07:19:38;;;;;;;10.25;1.85;;;;;;;4.50;100.00;101870.66;5408012;26;19998;-72
2024/04/21 07:22:04;;;;;;;8.77;2.15;;;;;;;4.52;100.00;101862.88;5441342;26;19999;-72
2024/04/21 07:24:31;;;;;;;11.45;1.40;;;;;;;4.38;100.00;101864.50;5441779;26;20361;-72
2024/04/21 07:26:57;;;;;;;12.93;2.55;;;;;;;4.58;100.00;101870.25;5441340;26;20003;-72
2024/04/21 07:29:23;;;;;;;12.30;1.80;;;;;;;4.83;100.00;101874.72;5436518;26;20014;-72
2024/04/21 07:31:49;;;;;;;13.77;2.40;;;;;;;4.95;100.00;101870.59;5407265;26;22982;-72
2024/04/21 07:34:15;;;;;;;13.60;4.43;;;;;;;5.00;100.00;101866.00;5432714;26;19998;-72
2024/04/21 07:36:41;;;;;;;25.52;5.85;;;;;;;5.33;99.85;101875.13;5440615;26;20072;-72
2024/04/21 07:39:08;;;;;;;20.77;6.30;;;;;;;6.11;96.86;101870.16;5410937;26;20570;-71
2024/04/21 07:41:34;;;;;;;16.58;5.90;;;;;;;7.07;92.29;101872.28;5440606;26;19994;-72
2024/04/21 07:44:00;;;;;;;17.98;6.60;;;;;;;6.97;90.21;101868.72;5377240;26;20045;-72
2024/04/21 07:46:26;;;;;;;21.20;6.95;;;;;;;7.66;85.96;101881.06;5408145;26;20000;-72
2024/04/21 07:48:52;;;;;;;19.95;6.63;;;;;;;6.79;86.61;101875.94;5438515;26;20351;-72
2024/04/21 07:51:18;;;;;;;19.88;7.07;;;;;;;6.80;89.30;101881.00;5435338;26;19995;-72
2024/04/21 07:53:44;;;;;;;22.10;6.88;;;;;;;6.58;91.22;101888.53;5411529;26;20003;-72
2024/04/21 07:56:10;;;;;;;22.17;7.40;;;;;;;6.38;90.34;101882.94;5441101;26;20033;-73
2024/04/21 07:58:36;;;;;;;16.23;7.35;;;;;;;7.15;88.77;101890.63;5434092;26;20011;-72
2024/04/21 08:01:09;;;;;;;16.00;6.55;;;;;;;7.34;86.48;101899.66;5430959;26;20029;-72
2024/04/21 08:03:35;;;;;;;;;;;;;;;7.19;83.65;101891.25;5434405;26;20006;-72
2024/04/21 08:06:01;;;;;;;20.92;6.13;;;;;;;6.86;84.80;101905.53;5408110;26;19993;-72
2024/04/21 08:08:27;;;;;;;18.00;7.40;;;;;;;6.44;83.54;101902.34;5410468;26;20010;-72
2024/04/21 08:11:01;;;;;;;20.90;7.18;;;;;;;6.20;83.26;101908.19;5432407;26;20000;-72
2024/04/21 08:13:27;;;;;;;18.35;6.80;;;;;;;6.05;85.75;101906.63;5433483;26;20473;-72
2024/04/21 08:15:53;;;;;;;19.10;5.50;;;;;;;5.90;87.61;101905.81;5403705;26;20004;-72
2024/04/21 08:18:19;;;;;;;16.63;5.60;;;;;;;5.97;88.87;101914.00;5379865;26;20354;-72
2024/04/21 08:20:46;;;;;;;22.58;5.60;;;;;;;5.84;90.11;101919.09;5395798;26;20007;-71
2024/04/21 08:23:13;;;;;;;18.85;4.75;;;;;;;6.09;89.08;101913.22;5404947;26;20000;-73
2024/04/21 08:25:40;;;;;;;10.45;3.65;;;;;;;6.20;85.26;101915.94;5434421;26;20003;-73
2024/04/21 08:28:06;;;;;;;15.82;4.45;;;;;;;7.44;81.79;101921.34;5404283;26;19999;-72
2024/04/21 08:30:32;;;;;;;12.88;4.25;;;;;;;7.52;81.29;101924.19;5410712;26;20605;-72
2024/04/21 08:32:58;;;;;;;15.60;3.95;;;;;;;7.87;80.28;101922.59;5408253;26;19995;-73
2024/04/21 08:35:24;;;;;;;21.48;3.83;;;;;;;7.64;78.15;101929.41;5439370;26;20010;-73
2024/04/21 08:37:50;;;;;;;16.08;3.80;;;;;;;7.29;77.14;101936.13;5441900;26;21262;-72
2024/04/21 08:40:16;;;;;;;16.33;4.35;;;;;;;7.03;79.29;101943.06;5441331;26;20016;-73
2024/04/21 08:42:42;;;;;;;15.15;4.03;;;;;;;6.88;79.64;101952.69;5444312;26;20085;-73
2024/04/21 08:45:08;;;;;;;13.70;4.22;;;;;;;6.64;77.37;101949.97;5406876;26;20006;-72
2024/04/21 08:47:35;;;;;;;12.38;3.75;;;;;;;6.48;78.72;101957.06;5408593;26;20390;-73
2024/04/21 08:50:02;;;;;;;10.05;4.45;;;;;;;6.41;78.25;101957.47;5406739;26;20077;-73
2024/04/21 08:52:33;;;;;;;9.95;4.20;;;;;;;6.27;79.74;101965.28;5441008;26;20003;-73
2024/04/21 08:55:00;;;;;;;9.32;4.45;;;;;;;6.33;78.54;101979.50;5435213;26;20015;-73
2024/04/21 08:57:26;;;;;;;17.13;5.10;;;;;;;6.14;80.76;101977.28;5404940;26;20018;-72
2024/04/21 08:59:58;;;;;;;9.50;4.25;;;;;;;6.23;81.36;101982.72;5410833;26;20014;-73
2024/04/21 09:02:28;;;;;;;7.43;3.95;;;;;;;6.16;78.05;101976.28;5439894;26;19995;-72
2024/04/21 09:04:55;;;;;;;11.80;4.57;;;;;;;5.99;79.80;101982.50;5436682;26;20067;-73
2024/04/21 09:07:23;;;;;;;8.50;3.38;;;;;;;5.97;80.14;101983.50;5440480;26;20673;-73
2024/04/21 09:09:49;;;;;;;11.45;4.68;;;;;;;6.00;81.67;101986.72;5405008;26;20014;-73
2024/04/21 09:12:15;;;;;;;11.80;4.18;;;;;;;6.31;79.97;101983.94;5438351;26;20003;-73
2024/04/21 09:14:47;;;;;;;8.80;4.80;;;;;;;7.41;74.68;101978.31;5437544;26;20003;-73
2024/04/21 09:17:14;;;;;;;9.23;4.15;;;;;;;8.16;70.70;101983.31;5406475;26;20013;-74
2024/04/21 09:19:40;;;;;;;13.73;4.97;;;;;;;7.75;72.80;101976.75;5440814;26;20014;-72
2024/04/21 09:22:06;;;;;;;12.00;4.47;;;;;;;7.34;74.90;101987.41;5433409;26;20003;-73
2024/04/21 09:24:32;;;;;;;9.60;4.72;;;;;;;7.34;72.59;102000.31;5435826;26;19995;-72
2024/04/21 09:26:58;;;;;;;10.52;5.15;;;;;;;7.21;73.80;101998.56;5442554;26;20002;-73
2024/04/21 09:29:24;;;;;;;9.30;4.53;;;;;;;6.95;72.59;101997.75;5403324;26;20003;-73
2024/04/21 09:31:50;;;;;;;8.40;5.00;;;;;;;7.15;72.84;101993.81;5439736;26;20027;-73
2024/04/21 09:34:20;;;;;;;12.02;6.68;;;;;;;7.82;73.68;102000.41;5431534;26;20068;-72
2024/04/21 09:36:46;;;;;;;14.80;4.90;;;;;;;7.66;70.66;101997.25;5412400;26;20015;-73
2024/04/21 09:39:13;;;;;;;17.55;6.20;;;;;;;7.65;72.76;102006.75;5433732;26;19991;-73
2024/04/21 09:41:41;;;;;;;13.68;9.85;;;;;;;7.59;72.88;101996.84;5439218;26;20079;-73
2024/04/21 09:44:07;;;;;;;6.93;4.22;;;;;;;7.33;72.31;102009.00;5445067;26;20007;-73
2024/04/21 09:46:35;;;;;;;10.82;5.00;;;;;;;7.44;73.47;102000.47;5437146;26;20003;-73
2024/04/21 09:49:03;;;;;;;7.47;4.35;;;;;;;7.52;72.17;102008.53;5444401;26;20006;-73
2024/04/21 09:51:32;;;;;;;9.40;4.13;;;;;;;8.11;67.73;101995.72;5444240;26;20108;-72
2024/04/21 09:54:00;;;;;;;9.85;3.55;;;;;;;8.79;64.00;101995.97;5420296;26;20471;-73
2024/04/21 09:56:35;;;;;;;7.63;3.47;;;;;;;8.85;62.67;101994.69;5412768;26;20011;-74
2024/04/21 09:59:03;;;;;;;6.30;4.03;;;;;;;8.81;63.71;101999.25;5408409;26;20075;-73
2024/04/21 10:01:33;;;;;;;6.53;3.30;;;;;;;8.57;64.00;102004.53;5414504;26;20450;-73
2024/04/21 10:04:03;;;;;;;6.80;3.25;;;;;;;8.34;63.12;102017.34;5439046;26;20011;-73
2024/04/21 10:06:31;;;;;;;7.47;3.10;;;;;;;8.63;62.64;102014.41;5416299;26;20003;-73
2024/04/21 10:09:03;;;;;;;7.05;3.15;;;;;;;9.00;61.08;102016.81;5407453;26;20010;-73
2024/04/21 10:11:29;;;;;;;7.57;3.35;;;;;;;9.22;59.56;102000.47;5411496;26;20022;-73
2024/04/21 10:14:01;;;;;;;8.63;3.35;;;;;;;9.61;58.93;101994.94;5446605;26;20003;-73
2024/04/21 10:16:28;;;;;;;9.90;2.30;;;;;;;9.65;58.57;102006.69;5444800;26;20017;-74
2024/04/21 10:19:08;;;;;;;3.53;1.92;;;;;;;9.79;58.88;102005.59;5413636;26;20013;-73
2024/04/21 10:21:35;;;;;;;4.22;2.50;;;;;;;9.79;61.43;102010.78;5415178;26;20074;-73
2024/04/21 10:24:01;;;;;;;6.47;2.38;;;;;;;10.03;60.30;102016.59;5418067;26;20018;-74
2024/04/21 10:26:29;;;;;;;4.93;3.15;;;;;;;9.85;60.01;102025.81;5444812;26;20015;-73
2024/04/21 10:29:07;;;;;;;8.10;2.80;;;;;;;9.11;61.18;102040.09;5436480;26;20050;-73
2024/04/21 10:31:32;;;;;;;5.55;2.70;;;;;;;9.04;61.48;102031.19;5440067;26;20013;-73
2024/04/21 10:34:24;;;;;;;6.25;3.00;;;;;;;9.05;60.59;102040.56;5442031;26;20573;-73
2024/04/21 10:36:52;;;;;;;5.93;2.97;;;;;;;8.99;61.13;102038.47;5406426;26;20072;-73
2024/04/21 10:39:25;;;;;;;6.60;3.30;;;;;;;9.01;60.88;102038.34;5441242;26;19991;-72
2024/04/21 10:41:56;;;;;;;6.53;3.28;;;;;;;8.84;60.78;102037.03;5416313;26;20003;-74
2024/04/21 10:44:22;;;;;;;4.80;2.80;;;;;;;8.95;60.34;102037.03;5406341;26;20014;-74
2024/04/21 10:46:48;;;;;;;7.38;3.08;;;;;;;9.16;59.60;102029.41;5407096;26;20018;-73
2024/04/21 10:49:14;;;;;;;6.93;3.00;;;;;;;9.21;57.69;102029.06;5412315;26;20018;-73
2024/04/21 10:51:40;;;;;;;6.85;3.20;;;;;;;9.53;57.63;102027.41;5442478;26;20003;-73
2024/04/21 10:54:11;;;;;;;8.35;2.92;;;;;;;9.73;59.07;102030.22;5411437;26;20816;-73
2024/04/21 10:56:38;;;;;;;4.65;2.90;;;;;;;10.10;55.96;102025.53;5407177;26;20023;-73
2024/04/21 10:59:05;;;;;;;6.50;2.38;;;;;;;9.98;53.37;102018.72;5384672;26;20007;-73
2024/04/21 11:01:31;;;;;;;7.25;2.42;;;;;;;10.09;56.24;102030.81;5409108;26;20003;-74
2024/04/21 11:03:58;;;;;;;6.38;2.78;;;;;;;10.19;53.67;102023.13;5413451;26;20021;-73
2024/04/21 11:06:25;;;;;;;9.48;2.67;;;;;;;10.12;53.71;102026.22;5413028;26;19999;-73
2024/04/21 11:08:51;;;;;;;7.35;2.60;;;;;;;9.90;54.50;102032.28;5409138;26;20075;-73
2024/04/21 11:11:17;;;;;;;5.22;2.15;;;;;;;9.99;55.67;102024.75;5444910;26;20071;-73
2024/04/21 11:13:43;;;;;;;5.22;2.55;;;;;;;10.31;55.18;102035.16;5445967;26;20003;-74
2024/04/21 11:16:13;;;;;;;4.88;2.97;;;;;;;10.61;55.80;102023.22;5447536;26;20021;-74
2024/04/21 11:18:40;;;;;;;5.80;2.08;;;;;;;10.45;55.63;102034.00;5452470;26;20011;-74
2024/04/21 11:21:07;;;;;;;5.38;2.35;;;;;;;10.61;54.40;102025.81;5413383;26;20039;-74